createdAt,value
2017-10-15T00:00:15.425Z,1011.92
2017-10-15T00:01:15.442Z,1011.93
2017-10-15T00:02:15.463Z,1011.89
2017-10-15T00:03:15.484Z,1011.87
2017-10-15T00:04:15.498Z,1011.89
2017-10-15T00:05:15.516Z,1011.89
2017-10-15T00:06:15.548Z,1011.90
2017-10-15T00:07:15.560Z,1011.88
2017-10-15T00:08:15.586Z,1011.92
2017-10-15T00:09:15.595Z,1011.91
2017-10-15T00:10:15.616Z,1011.90
2017-10-15T00:11:15.633Z,1011.88
2017-10-15T00:12:15.672Z,1011.89
2017-10-15T00:13:15.676Z,1011.90
2017-10-15T00:14:15.693Z,1011.90
2017-10-15T00:15:15.713Z,1011.89
2017-10-15T00:16:15.736Z,1011.92
2017-10-15T00:17:15.754Z,1011.93
2017-10-15T00:18:15.774Z,1011.90
2017-10-15T00:19:15.790Z,1011.89
2017-10-15T00:20:15.810Z,1011.88
2017-10-15T00:21:15.830Z,1011.92
2017-10-15T00:22:15.848Z,1011.93
2017-10-15T00:23:15.870Z,1011.93
2017-10-15T00:24:15.886Z,1011.94
2017-10-15T00:25:15.908Z,1011.91
2017-10-15T00:26:15.927Z,1011.89
2017-10-15T00:27:15.946Z,1011.88
2017-10-15T00:28:15.968Z,1011.89
2017-10-15T00:29:16.013Z,1011.87
2017-10-15T00:30:16.013Z,1011.89
2017-10-15T00:31:16.029Z,1011.86
2017-10-15T00:32:16.043Z,1011.85
2017-10-15T00:33:16.062Z,1011.85
2017-10-15T00:34:16.084Z,1011.82
2017-10-15T00:35:16.110Z,1011.85
2017-10-15T00:36:16.126Z,1011.83
2017-10-15T00:37:16.265Z,1011.85
2017-10-15T00:38:16.164Z,1011.87
2017-10-15T00:39:16.178Z,1011.80
2017-10-15T00:40:16.197Z,1011.78
2017-10-15T00:41:16.216Z,1011.80
2017-10-15T00:42:16.240Z,1011.78
2017-10-15T00:43:16.256Z,1011.78
2017-10-15T00:44:16.277Z,1011.81
2017-10-15T00:45:16.297Z,1011.78
2017-10-15T00:46:16.315Z,1011.77
2017-10-15T00:47:16.334Z,1011.78
2017-10-15T00:48:16.353Z,1011.78
2017-10-15T00:49:16.490Z,1011.77
2017-10-15T00:50:16.392Z,1011.77
2017-10-15T00:51:16.413Z,1011.73
2017-10-15T00:52:16.431Z,1011.73
2017-10-15T00:53:16.450Z,1011.73
2017-10-15T00:54:16.469Z,1011.73
2017-10-15T00:55:16.489Z,1011.68
2017-10-15T00:56:16.506Z,1011.68
2017-10-15T00:57:16.529Z,1011.68
2017-10-15T00:58:16.551Z,1011.67
2017-10-15T00:59:16.571Z,1011.67
2017-10-15T01:00:16.737Z,1011.68
2017-10-15T01:01:16.614Z,1011.65
2017-10-15T01:02:16.628Z,1011.67
2017-10-15T01:03:16.652Z,1011.66
2017-10-15T01:04:16.662Z,1011.64
2017-10-15T01:05:16.683Z,1011.65
2017-10-15T01:06:16.704Z,1011.63
2017-10-15T01:07:16.722Z,1011.64
2017-10-15T01:08:16.745Z,1011.65
2017-10-15T01:09:16.765Z,1011.63
2017-10-15T01:10:16.780Z,1011.62
2017-10-15T01:11:16.800Z,1011.63
2017-10-15T01:12:16.815Z,1011.62
2017-10-15T01:13:16.837Z,1011.65
2017-10-15T01:14:16.857Z,1011.65
2017-10-15T01:15:16.876Z,1011.62
2017-10-15T01:16:16.895Z,1011.60
2017-10-15T01:17:16.917Z,1011.62
2017-10-15T01:18:16.932Z,1011.61
2017-10-15T01:19:16.951Z,1011.63
2017-10-15T01:20:16.971Z,1011.63
2017-10-15T01:21:17.013Z,1011.62
2017-10-15T01:22:17.011Z,1011.62
2017-10-15T01:23:17.030Z,1011.66
2017-10-15T01:24:17.045Z,1011.66
2017-10-15T01:25:17.071Z,1011.67
2017-10-15T01:26:17.087Z,1011.68
2017-10-15T01:27:17.107Z,1011.67
2017-10-15T01:28:17.125Z,1011.67
2017-10-15T01:29:17.145Z,1011.65
2017-10-15T01:30:17.166Z,1011.64
2017-10-15T01:31:17.185Z,1011.65
2017-10-15T01:32:17.203Z,1011.65
2017-10-15T01:33:17.237Z,1011.68
2017-10-15T01:34:17.247Z,1011.66
2017-10-15T01:35:17.262Z,1011.61
2017-10-15T01:36:17.279Z,1011.59
2017-10-15T01:37:17.299Z,1011.61
2017-10-15T01:38:17.322Z,1011.60
2017-10-15T01:39:17.339Z,1011.61
2017-10-15T01:40:17.359Z,1011.59
2017-10-15T01:41:17.378Z,1011.59
2017-10-15T01:42:17.403Z,1011.60
2017-10-15T01:43:17.415Z,1011.59
2017-10-15T01:44:17.434Z,1011.60
2017-10-15T01:45:17.460Z,1011.57
2017-10-15T01:46:17.477Z,1011.57
2017-10-15T01:47:17.492Z,1011.58
2017-10-15T01:48:17.511Z,1011.62
2017-10-15T01:49:17.531Z,1011.62
2017-10-15T01:50:17.549Z,1011.61
2017-10-15T01:51:17.573Z,1011.64
2017-10-15T01:52:17.587Z,1011.61
2017-10-15T01:53:17.608Z,1011.58
2017-10-15T01:54:17.626Z,1011.60
2017-10-15T01:55:17.648Z,1011.61
2017-10-15T01:56:17.666Z,1011.62
2017-10-15T01:57:17.690Z,1011.60
2017-10-15T01:58:17.702Z,1011.61
2017-10-15T01:59:17.722Z,1011.60
2017-10-15T02:00:17.746Z,1011.59
2017-10-15T02:01:17.764Z,1011.57
2017-10-15T02:02:17.779Z,1011.58
2017-10-15T02:03:17.804Z,1011.56
2017-10-15T02:04:17.817Z,1011.56
2017-10-15T02:05:17.837Z,1011.55
2017-10-15T02:06:17.857Z,1011.56
2017-10-15T02:07:17.876Z,1011.60
2017-10-15T02:08:17.904Z,1011.55
2017-10-15T02:09:17.918Z,1011.60
2017-10-15T02:10:17.939Z,1011.60
2017-10-15T02:11:17.952Z,1011.57
2017-10-15T02:12:17.972Z,1011.61
2017-10-15T02:13:17.990Z,1011.57
2017-10-15T02:14:18.009Z,1011.57
2017-10-15T02:15:18.032Z,1011.60
2017-10-15T02:16:18.049Z,1011.60
2017-10-15T02:17:18.092Z,1011.62
2017-10-15T02:18:18.089Z,1011.61
2017-10-15T02:19:18.110Z,1011.60
2017-10-15T02:20:18.129Z,1011.60
2017-10-15T02:21:18.145Z,1011.64
2017-10-15T02:22:18.168Z,1011.62
2017-10-15T02:23:18.182Z,1011.62
2017-10-15T02:24:18.204Z,1011.61
2017-10-15T02:25:18.220Z,1011.67
2017-10-15T02:26:18.242Z,1011.63
2017-10-15T02:27:18.259Z,1011.68
2017-10-15T02:28:18.282Z,1011.67
2017-10-15T02:29:18.297Z,1011.71
2017-10-15T02:30:18.332Z,1011.68
2017-10-15T02:31:18.336Z,1011.71
2017-10-15T02:32:18.356Z,1011.72
2017-10-15T02:33:18.373Z,1011.69
2017-10-15T02:34:18.392Z,1011.67
2017-10-15T02:35:18.418Z,1011.69
2017-10-15T02:36:18.434Z,1011.69
2017-10-15T02:37:18.451Z,1011.69
2017-10-15T02:38:18.470Z,1011.73
2017-10-15T02:39:18.494Z,1011.70
2017-10-15T02:40:18.508Z,1011.70
2017-10-15T02:41:18.529Z,1011.73
2017-10-15T02:42:18.546Z,1011.70
2017-10-15T02:43:18.568Z,1011.71
2017-10-15T02:44:18.588Z,1011.68
2017-10-15T02:45:18.604Z,1011.67
2017-10-15T02:46:18.623Z,1011.70
2017-10-15T02:47:18.650Z,1011.67
2017-10-15T02:48:18.661Z,1011.65
2017-10-15T02:49:18.681Z,1011.68
2017-10-15T02:50:18.700Z,1011.66
2017-10-15T02:51:18.717Z,1011.63
2017-10-15T02:52:18.736Z,1011.61
2017-10-15T02:53:18.765Z,1011.67
2017-10-15T02:54:18.774Z,1011.65
2017-10-15T02:55:18.795Z,1011.69
2017-10-15T02:56:18.813Z,1011.68
2017-10-15T02:57:18.840Z,1011.66
2017-10-15T02:58:18.911Z,1011.66
2017-10-15T02:59:18.869Z,1011.69
2017-10-15T03:00:18.891Z,1011.70
2017-10-15T03:01:18.911Z,1011.69
2017-10-15T03:02:18.930Z,1011.67
2017-10-15T03:03:18.948Z,1011.70
2017-10-15T03:04:18.965Z,1011.70
2017-10-15T03:05:18.988Z,1011.69
2017-10-15T03:06:19.004Z,1011.69
2017-10-15T03:07:19.031Z,1011.69
2017-10-15T03:08:19.046Z,1011.67
2017-10-15T03:09:19.062Z,1011.69
2017-10-15T03:10:19.080Z,1011.70
2017-10-15T03:11:19.101Z,1011.71
2017-10-15T03:12:19.119Z,1011.68
2017-10-15T03:13:19.138Z,1011.70
2017-10-15T03:14:19.157Z,1011.72
2017-10-15T03:15:19.182Z,1011.72
2017-10-15T03:16:19.205Z,1011.71
2017-10-15T03:17:19.215Z,1011.75
2017-10-15T03:18:19.235Z,1011.74
2017-10-15T03:19:19.251Z,1011.78
2017-10-15T03:20:19.271Z,1011.74
2017-10-15T03:21:19.288Z,1011.74
2017-10-15T03:22:19.308Z,1011.77
2017-10-15T03:23:19.339Z,1011.79
2017-10-15T03:24:19.344Z,1011.75
2017-10-15T03:25:19.393Z,1011.81
2017-10-15T03:26:19.382Z,1011.81
2017-10-15T03:27:19.469Z,1011.83
2017-10-15T03:28:19.421Z,1011.80
2017-10-15T03:29:19.450Z,1011.85
2017-10-15T03:30:19.463Z,1011.83
2017-10-15T03:31:19.489Z,1011.85
2017-10-15T03:32:19.497Z,1011.82
2017-10-15T03:33:19.515Z,1011.82
2017-10-15T03:34:19.545Z,1011.82
2017-10-15T03:35:19.555Z,1011.81
2017-10-15T03:36:19.573Z,1011.79
2017-10-15T03:37:19.592Z,1011.81
2017-10-15T03:38:19.621Z,1011.80
2017-10-15T03:39:19.711Z,1011.81
2017-10-15T03:40:19.648Z,1011.82
2017-10-15T03:41:19.672Z,1011.82
2017-10-15T03:42:19.689Z,1011.84
2017-10-15T03:43:19.707Z,1011.82
2017-10-15T03:44:19.724Z,1011.85
2017-10-15T03:45:19.803Z,1011.85
2017-10-15T03:46:19.764Z,1011.86
2017-10-15T03:47:19.782Z,1011.87
2017-10-15T03:48:19.798Z,1011.88
2017-10-15T03:49:19.818Z,1011.92
2017-10-15T03:50:19.838Z,1011.91
2017-10-15T03:51:19.860Z,1011.85
2017-10-15T03:52:19.877Z,1011.89
2017-10-15T03:53:19.894Z,1011.89
2017-10-15T03:54:19.914Z,1011.88
2017-10-15T03:55:19.937Z,1011.91
2017-10-15T03:56:19.965Z,1011.88
2017-10-15T03:57:19.971Z,1011.88
2017-10-15T03:58:19.989Z,1011.92
2017-10-15T03:59:20.009Z,1011.94
2017-10-15T04:00:20.026Z,1011.96
2017-10-15T04:01:20.046Z,1011.94
2017-10-15T04:02:20.067Z,1011.92
2017-10-15T04:03:20.085Z,1011.95
2017-10-15T04:04:20.104Z,1011.94
2017-10-15T04:05:20.122Z,1011.97
2017-10-15T04:06:20.142Z,1011.95
2017-10-15T04:07:20.169Z,1011.95
2017-10-15T04:08:20.181Z,1011.95
2017-10-15T04:09:20.199Z,1011.93
2017-10-15T04:10:20.219Z,1011.95
2017-10-15T04:11:20.237Z,1011.93
2017-10-15T04:12:20.255Z,1011.95
2017-10-15T04:13:20.275Z,1011.97
2017-10-15T04:14:20.295Z,1011.94
2017-10-15T04:15:20.311Z,1011.93
2017-10-15T04:16:20.330Z,1011.94
2017-10-15T04:17:20.352Z,1011.94
2017-10-15T04:18:20.369Z,1011.94
2017-10-15T04:19:20.388Z,1011.91
2017-10-15T04:20:20.409Z,1011.92
2017-10-15T04:21:20.429Z,1011.91
2017-10-15T04:22:20.448Z,1011.91
2017-10-15T04:23:20.465Z,1011.90
2017-10-15T04:24:20.481Z,1011.90
2017-10-15T04:25:20.500Z,1011.88
2017-10-15T04:26:20.520Z,1011.86
2017-10-15T04:27:20.541Z,1011.87
2017-10-15T04:28:20.557Z,1011.87
2017-10-15T04:29:20.578Z,1011.85
2017-10-15T04:30:20.601Z,1011.86
2017-10-15T04:31:20.618Z,1011.84
2017-10-15T04:32:20.635Z,1011.86
2017-10-15T04:33:20.654Z,1011.84
2017-10-15T04:34:20.686Z,1011.84
2017-10-15T04:35:20.691Z,1011.83
2017-10-15T04:36:20.712Z,1011.77
2017-10-15T04:37:20.731Z,1011.82
2017-10-15T04:38:20.748Z,1011.73
2017-10-15T04:39:20.769Z,1011.74
2017-10-15T04:40:20.787Z,1011.75
2017-10-15T04:41:20.808Z,1011.71
2017-10-15T04:42:20.830Z,1011.72
2017-10-15T04:43:20.846Z,1011.72
2017-10-15T04:44:20.861Z,1011.69
2017-10-15T04:45:20.885Z,1011.69
2017-10-15T04:46:20.905Z,1011.70
2017-10-15T04:47:20.921Z,1011.71
2017-10-15T04:48:20.945Z,1011.72
2017-10-15T04:49:20.961Z,1011.71
2017-10-15T04:50:20.979Z,1011.73
2017-10-15T04:51:20.997Z,1011.75
2017-10-15T04:52:21.015Z,1011.69
2017-10-15T04:53:21.036Z,1011.69
2017-10-15T04:54:21.056Z,1011.67
2017-10-15T04:55:21.075Z,1011.70
2017-10-15T04:56:21.092Z,1011.73
2017-10-15T04:57:21.112Z,1011.70
2017-10-15T04:58:21.134Z,1011.70
2017-10-15T04:59:21.150Z,1011.70
2017-10-15T05:00:21.167Z,1011.68
2017-10-15T05:01:21.191Z,1011.67
2017-10-15T05:02:21.210Z,1011.69
2017-10-15T05:03:21.230Z,1011.70
2017-10-15T05:04:21.247Z,1011.67
2017-10-15T05:05:21.269Z,1011.66
2017-10-15T05:06:21.287Z,1011.66
2017-10-15T05:07:21.308Z,1011.69
2017-10-15T05:08:21.324Z,1011.68
2017-10-15T05:09:21.344Z,1011.68
2017-10-15T05:10:21.374Z,1011.66
2017-10-15T05:11:21.383Z,1011.65
2017-10-15T05:12:21.401Z,1011.67
2017-10-15T05:13:21.422Z,1011.63
2017-10-15T05:14:21.441Z,1011.65
2017-10-15T05:15:21.459Z,1011.64
2017-10-15T05:16:21.480Z,1011.63
2017-10-15T05:17:21.504Z,1011.67
2017-10-15T05:18:21.520Z,1011.68
2017-10-15T05:19:21.537Z,1011.68
2017-10-15T05:20:21.555Z,1011.68
2017-10-15T05:21:21.577Z,1011.67
2017-10-15T05:22:21.597Z,1011.73
2017-10-15T05:23:21.617Z,1011.75
2017-10-15T05:24:21.635Z,1011.76
2017-10-15T05:25:21.653Z,1011.76
2017-10-15T05:26:21.672Z,1011.77
2017-10-15T05:27:21.695Z,1011.77
2017-10-15T05:28:21.715Z,1011.76
2017-10-15T05:29:21.730Z,1011.80
2017-10-15T05:30:21.753Z,1011.78
2017-10-15T05:31:21.769Z,1011.81
2017-10-15T05:32:21.786Z,1011.79
2017-10-15T05:33:21.804Z,1011.82
2017-10-15T05:34:21.824Z,1011.81
2017-10-15T05:35:21.844Z,1011.79
2017-10-15T05:36:21.862Z,1011.79
2017-10-15T05:37:21.881Z,1011.80
2017-10-15T05:38:21.910Z,1011.82
2017-10-15T05:39:21.921Z,1011.78
2017-10-15T05:40:21.945Z,1011.80
2017-10-15T05:41:21.960Z,1011.81
2017-10-15T05:42:21.979Z,1011.81
2017-10-15T05:43:21.997Z,1011.80
2017-10-15T05:44:22.017Z,1011.78
2017-10-15T05:45:22.037Z,1011.78
2017-10-15T05:46:22.060Z,1011.79
2017-10-15T05:47:22.073Z,1011.76
2017-10-15T05:48:22.093Z,1011.76
2017-10-15T05:49:22.111Z,1011.80
2017-10-15T05:50:22.139Z,1011.79
2017-10-15T05:51:22.149Z,1011.80
2017-10-15T05:52:22.224Z,1011.80
2017-10-15T05:53:22.186Z,1011.82
2017-10-15T05:54:22.204Z,1011.81
2017-10-15T05:55:22.225Z,1011.83
2017-10-15T05:56:22.246Z,1011.81
2017-10-15T05:57:22.264Z,1011.83
2017-10-15T05:58:22.282Z,1011.77
2017-10-15T05:59:22.302Z,1011.79
2017-10-15T06:00:22.319Z,1011.83
2017-10-15T06:01:22.341Z,1011.82
2017-10-15T06:02:22.359Z,1011.84
2017-10-15T06:03:22.379Z,1011.86
2017-10-15T06:04:22.397Z,1011.83
2017-10-15T06:05:22.419Z,1011.85
2017-10-15T06:06:22.438Z,1011.80
2017-10-15T06:07:22.452Z,1011.83
2017-10-15T06:08:22.471Z,1011.86
2017-10-15T06:09:22.493Z,1011.86
2017-10-15T06:10:22.510Z,1011.89
2017-10-15T06:11:22.543Z,1011.86
2017-10-15T06:12:22.550Z,1011.90
2017-10-15T06:13:22.571Z,1011.91
2017-10-15T06:14:22.586Z,1011.88
2017-10-15T06:15:22.605Z,1011.88
2017-10-15T06:16:22.623Z,1011.91
2017-10-15T06:17:22.642Z,1011.90
2017-10-15T06:18:22.668Z,1011.91
2017-10-15T06:19:22.678Z,1011.93
2017-10-15T06:20:22.724Z,1011.98
2017-10-15T06:21:22.722Z,1012.04
2017-10-15T06:22:22.741Z,1012.04
2017-10-15T06:23:22.762Z,1012.03
2017-10-15T06:24:22.779Z,1012.04
2017-10-15T06:25:22.794Z,1012.00
2017-10-15T06:26:22.815Z,1012.01
2017-10-15T06:27:22.832Z,1012.02
2017-10-15T06:28:22.856Z,1012.04
2017-10-15T06:29:22.877Z,1012.12
2017-10-15T06:30:22.889Z,1012.10
2017-10-15T06:31:22.913Z,1012.12
2017-10-15T06:32:22.929Z,1012.20
2017-10-15T06:33:22.954Z,1012.18
2017-10-15T06:34:22.969Z,1012.20
2017-10-15T06:35:22.986Z,1012.11
2017-10-15T06:36:23.027Z,1012.25
2017-10-15T06:37:23.041Z,1012.33
2017-10-15T06:38:23.046Z,1012.28
2017-10-15T06:39:23.065Z,1012.43
2017-10-15T06:40:23.081Z,1012.49
2017-10-15T06:41:23.130Z,1012.37
2017-10-15T06:42:23.133Z,1012.56
2017-10-15T06:43:23.296Z,1012.50
2017-10-15T06:44:23.159Z,1012.44
2017-10-15T06:45:23.188Z,1012.35
2017-10-15T06:46:23.204Z,1012.36
2017-10-15T06:47:23.221Z,1012.42
2017-10-15T06:48:23.246Z,1012.55
2017-10-15T06:49:23.264Z,1012.61
2017-10-15T06:50:23.363Z,1012.62
2017-10-15T06:51:23.304Z,1012.65
2017-10-15T06:52:23.325Z,1012.80
2017-10-15T06:53:23.348Z,1012.81
2017-10-15T06:54:23.375Z,1012.77
2017-10-15T06:55:23.383Z,1012.80
2017-10-15T06:56:23.412Z,1012.73
2017-10-15T06:57:23.424Z,1012.91
2017-10-15T06:58:23.450Z,1012.86
2017-10-15T06:59:23.475Z,1013.07
2017-10-15T07:00:23.487Z,1013.07
2017-10-15T07:01:23.526Z,1013.12
2017-10-15T07:02:23.535Z,1013.18
2017-10-15T07:03:23.555Z,1013.18
2017-10-15T07:04:23.578Z,1013.11
2017-10-15T07:05:23.597Z,1013.11
2017-10-15T07:06:23.629Z,1013.07
2017-10-15T07:07:23.645Z,1013.11
2017-10-15T07:08:23.660Z,1013.07
2017-10-15T07:09:23.684Z,1013.04
2017-10-15T07:10:23.710Z,1013.06
2017-10-15T07:11:23.737Z,1013.00
2017-10-15T07:12:23.799Z,1013.02
2017-10-15T07:13:23.786Z,1012.95
2017-10-15T07:14:23.808Z,1012.89
2017-10-15T07:15:23.824Z,1012.87
2017-10-15T07:16:23.847Z,1012.81
2017-10-15T07:17:23.877Z,1012.83
2017-10-15T07:18:23.899Z,1012.85
2017-10-15T07:19:23.925Z,1012.81
2017-10-15T07:20:23.945Z,1012.74
2017-10-15T07:21:23.972Z,1012.66
2017-10-15T07:22:23.998Z,1012.60
2017-10-15T07:23:24.021Z,1012.59
2017-10-15T07:24:24.046Z,1012.56
2017-10-15T07:25:24.071Z,1012.49
2017-10-15T07:26:24.096Z,1012.48
2017-10-15T07:27:24.123Z,1012.46
2017-10-15T07:28:24.153Z,1012.46
2017-10-15T07:29:24.181Z,1012.42
2017-10-15T07:30:24.204Z,1012.46
2017-10-15T07:31:24.223Z,1012.47
2017-10-15T07:32:24.250Z,1012.47
2017-10-15T07:33:24.277Z,1012.45
2017-10-15T07:34:24.301Z,1012.47
2017-10-15T07:35:24.329Z,1012.47
2017-10-15T07:36:24.351Z,1012.46
2017-10-15T07:37:24.379Z,1012.50
2017-10-15T07:38:24.402Z,1012.50
2017-10-15T07:39:24.427Z,1012.36
2017-10-15T07:40:24.460Z,1012.37
2017-10-15T07:41:24.482Z,1012.29
2017-10-15T07:42:24.506Z,1012.30
2017-10-15T07:43:24.530Z,1012.32
2017-10-15T07:44:24.555Z,1012.28
2017-10-15T07:45:24.585Z,1012.30
2017-10-15T07:46:24.609Z,1012.25
2017-10-15T07:47:24.639Z,1012.29
2017-10-15T07:48:24.661Z,1012.30
2017-10-15T07:49:24.688Z,1012.30
2017-10-15T07:50:24.739Z,1012.33
2017-10-15T07:51:24.751Z,1012.36
2017-10-15T07:52:24.775Z,1012.33
2017-10-15T07:53:24.796Z,1012.38
2017-10-15T07:54:24.831Z,1012.36
2017-10-15T07:55:24.852Z,1012.36
2017-10-15T07:56:24.872Z,1012.37
2017-10-15T07:57:24.901Z,1012.39
2017-10-15T07:58:24.930Z,1012.34
2017-10-15T07:59:24.960Z,1012.33
2017-10-15T08:00:24.986Z,1012.33
2017-10-15T08:01:25.008Z,1012.34
2017-10-15T08:02:25.033Z,1012.28
2017-10-15T08:03:25.076Z,1012.27
2017-10-15T08:04:25.102Z,1012.22
2017-10-15T08:05:25.123Z,1012.19
2017-10-15T08:06:25.152Z,1012.14
2017-10-15T08:07:25.194Z,1012.14
2017-10-15T08:08:25.199Z,1012.09
2017-10-15T08:09:25.222Z,1012.08
2017-10-15T08:10:25.253Z,1012.05
2017-10-15T08:11:25.283Z,1012.07
2017-10-15T08:12:25.304Z,1012.00
2017-10-15T08:13:25.324Z,1011.82
2017-10-15T08:14:25.353Z,1011.80
2017-10-15T08:15:25.380Z,1011.83
2017-10-15T08:16:25.402Z,1011.81
2017-10-15T08:17:25.437Z,1011.81
2017-10-15T08:18:25.450Z,1011.77
2017-10-15T08:19:25.482Z,1011.80
2017-10-15T08:20:25.511Z,1011.71
2017-10-15T08:21:25.525Z,1011.70
2017-10-15T08:22:25.555Z,1011.70
2017-10-15T08:23:25.576Z,1011.67
2017-10-15T08:24:25.602Z,1011.71
2017-10-15T08:25:25.628Z,1011.65
2017-10-15T08:26:25.650Z,1011.65
2017-10-15T08:27:25.674Z,1011.70
2017-10-15T08:28:25.699Z,1011.66
2017-10-15T08:29:26.612Z,1011.62
2017-10-15T08:30:25.747Z,1011.64
2017-10-15T08:31:25.772Z,1011.65
2017-10-15T08:32:25.792Z,1011.65
2017-10-15T08:33:25.821Z,1011.66
2017-10-15T08:34:25.843Z,1011.66
2017-10-15T08:35:25.870Z,1011.62
2017-10-15T08:36:25.887Z,1011.63
2017-10-15T08:37:25.910Z,1011.62
2017-10-15T08:38:25.938Z,1011.67
2017-10-15T08:39:26.782Z,1011.65
2017-10-15T08:40:25.981Z,1011.63
2017-10-15T08:41:26.005Z,1011.56
2017-10-15T08:42:26.027Z,1011.59
2017-10-15T08:43:26.064Z,1011.59
2017-10-15T08:44:26.086Z,1011.58
2017-10-15T08:45:26.097Z,1011.58
2017-10-15T08:46:26.134Z,1011.57
2017-10-15T08:47:26.141Z,1011.57
2017-10-15T08:48:26.413Z,1011.54
2017-10-15T08:49:26.194Z,1011.54
2017-10-15T08:50:26.209Z,1011.51
2017-10-15T08:51:26.244Z,1011.51
2017-10-15T08:52:26.260Z,1011.48
2017-10-15T08:53:26.280Z,1011.48
2017-10-15T08:54:26.302Z,1011.47
2017-10-15T08:55:26.390Z,1011.47
2017-10-15T08:56:26.354Z,1011.43
2017-10-15T08:57:27.024Z,1011.43
2017-10-15T08:58:26.395Z,1011.44
2017-10-15T08:59:26.419Z,1011.45
2017-10-15T09:00:26.451Z,1011.40
2017-10-15T09:01:26.464Z,1011.41
2017-10-15T09:02:26.492Z,1011.40
2017-10-15T09:03:26.599Z,1011.41
2017-10-15T09:04:26.531Z,1011.39
2017-10-15T09:05:26.552Z,1011.42
2017-10-15T09:06:26.597Z,1011.38
2017-10-15T09:07:26.597Z,1011.38
2017-10-15T09:08:26.630Z,1011.38
2017-10-15T09:09:26.645Z,1011.39
2017-10-15T09:10:26.664Z,1011.36
2017-10-15T09:11:26.701Z,1011.36
2017-10-15T09:12:26.712Z,1011.37
2017-10-15T09:13:26.732Z,1011.39
2017-10-15T09:14:26.755Z,1011.36
2017-10-15T09:15:27.599Z,1011.38
2017-10-15T09:16:26.802Z,1011.36
2017-10-15T09:17:26.824Z,1011.35
2017-10-15T09:18:26.848Z,1011.27
2017-10-15T09:19:27.088Z,1011.34
2017-10-15T09:20:26.894Z,1011.33
2017-10-15T09:21:26.917Z,1011.35
2017-10-15T09:22:26.935Z,1011.34
2017-10-15T09:23:26.961Z,1011.33
2017-10-15T09:24:26.980Z,1011.32
2017-10-15T09:25:27.006Z,1011.32
2017-10-15T09:26:27.596Z,1011.32
2017-10-15T09:27:27.050Z,1011.34
2017-10-15T09:28:27.132Z,1011.30
2017-10-15T09:29:27.194Z,1011.32
2017-10-15T09:30:27.135Z,1011.25
2017-10-15T09:31:27.159Z,1011.28
2017-10-15T09:32:27.165Z,1011.29
2017-10-15T09:33:27.182Z,1011.27
2017-10-15T09:34:27.213Z,1011.29
2017-10-15T09:35:27.238Z,1011.27
2017-10-15T09:36:27.254Z,1011.25
2017-10-15T09:37:27.275Z,1011.25
2017-10-15T09:38:27.296Z,1011.28
2017-10-15T09:39:27.336Z,1011.23
2017-10-15T09:40:27.341Z,1011.20
2017-10-15T09:41:27.490Z,1011.21
2017-10-15T09:42:27.389Z,1011.22
2017-10-15T09:43:27.424Z,1011.23
2017-10-15T09:44:27.477Z,1011.23
2017-10-15T09:45:27.455Z,1011.21
2017-10-15T09:46:27.483Z,1011.22
2017-10-15T09:47:27.509Z,1011.22
2017-10-15T09:48:27.522Z,1011.20
2017-10-15T09:49:27.548Z,1011.20
2017-10-15T09:50:27.568Z,1011.17
2017-10-15T09:51:27.592Z,1011.18
2017-10-15T09:52:27.613Z,1011.22
2017-10-15T09:53:29.332Z,1011.21
2017-10-15T09:54:27.669Z,1011.19
2017-10-15T09:55:27.686Z,1011.18
2017-10-15T09:56:27.705Z,1011.19
2017-10-15T09:57:27.726Z,1011.16
2017-10-15T09:58:27.759Z,1011.14
2017-10-15T09:59:27.777Z,1011.12
2017-10-15T10:00:27.797Z,1011.13
2017-10-15T10:01:27.823Z,1011.12
2017-10-15T10:02:27.841Z,1011.12
2017-10-15T10:03:27.868Z,1011.08
2017-10-15T10:04:27.885Z,1011.07
2017-10-15T10:05:28.041Z,1011.08
2017-10-15T10:06:27.933Z,1011.07
2017-10-15T10:07:27.971Z,1011.03
2017-10-15T10:08:27.983Z,1011.01
2017-10-15T10:09:28.033Z,1011.02
2017-10-15T10:10:28.021Z,1011.03
2017-10-15T10:11:28.046Z,1011.01
2017-10-15T10:12:28.072Z,1010.95
2017-10-15T10:13:28.097Z,1010.94
2017-10-15T10:14:28.113Z,1010.93
2017-10-15T10:15:28.135Z,1010.90
2017-10-15T10:16:28.156Z,1010.90
2017-10-15T10:17:28.181Z,1010.85
2017-10-15T10:18:28.203Z,1010.86
2017-10-15T10:19:28.229Z,1010.83
2017-10-15T10:20:28.249Z,1010.83
2017-10-15T10:21:28.272Z,1010.82
2017-10-15T10:22:28.296Z,1010.85
2017-10-15T10:23:28.324Z,1010.83
2017-10-15T10:24:28.346Z,1010.86
2017-10-15T10:25:28.364Z,1010.85
2017-10-15T10:26:28.389Z,1010.85
2017-10-15T10:27:28.414Z,1010.87
2017-10-15T10:28:28.436Z,1010.88
2017-10-15T10:29:28.458Z,1010.86
2017-10-15T10:30:28.482Z,1010.86
2017-10-15T10:31:28.505Z,1010.81
2017-10-15T10:32:28.526Z,1010.79
2017-10-15T10:33:28.548Z,1010.78
2017-10-15T10:34:28.573Z,1010.76
2017-10-15T10:35:28.596Z,1010.76
2017-10-15T10:36:28.634Z,1010.74
2017-10-15T10:37:28.644Z,1010.75
2017-10-15T10:38:28.674Z,1010.73
2017-10-15T10:39:28.687Z,1010.74
2017-10-15T10:40:28.707Z,1010.70
2017-10-15T10:41:28.733Z,1010.69
2017-10-15T10:42:28.779Z,1010.69
2017-10-15T10:43:28.783Z,1010.67
2017-10-15T10:44:28.800Z,1010.65
2017-10-15T10:45:28.835Z,1010.64
2017-10-15T10:46:28.847Z,1010.67
2017-10-15T10:47:28.873Z,1010.65
2017-10-15T10:48:28.908Z,1010.62
2017-10-15T10:49:28.913Z,1010.58
2017-10-15T10:50:28.941Z,1010.57
2017-10-15T10:51:28.960Z,1010.58
2017-10-15T10:52:29.006Z,1010.58
2017-10-15T10:53:29.006Z,1010.56
2017-10-15T10:54:29.032Z,1010.56
2017-10-15T10:55:29.052Z,1010.55
2017-10-15T10:56:29.077Z,1010.56
2017-10-15T10:57:29.099Z,1010.56
2017-10-15T10:58:29.119Z,1010.53
2017-10-15T10:59:29.145Z,1010.47
2017-10-15T11:00:29.171Z,1010.49
2017-10-15T11:01:29.190Z,1010.44
2017-10-15T11:02:29.214Z,1010.43
2017-10-15T11:03:29.233Z,1010.44
2017-10-15T11:04:29.257Z,1010.41
2017-10-15T11:05:29.290Z,1010.41
2017-10-15T11:06:29.301Z,1010.41
2017-10-15T11:07:29.329Z,1010.39
2017-10-15T11:08:29.350Z,1010.40
2017-10-15T11:09:29.373Z,1010.36
2017-10-15T11:10:29.405Z,1010.35
2017-10-15T11:11:29.458Z,1010.39
2017-10-15T11:12:29.443Z,1010.36
2017-10-15T11:13:29.482Z,1010.33
2017-10-15T11:14:29.486Z,1010.33
2017-10-15T11:15:29.513Z,1010.31
2017-10-15T11:16:29.536Z,1010.28
2017-10-15T11:17:29.564Z,1010.27
2017-10-15T11:18:29.580Z,1010.26
2017-10-15T11:19:29.621Z,1010.23
2017-10-15T11:20:29.630Z,1010.20
2017-10-15T11:21:29.655Z,1010.20
2017-10-15T11:22:29.675Z,1010.18
2017-10-15T11:23:29.703Z,1010.17
2017-10-15T11:24:29.729Z,1010.13
2017-10-15T11:25:29.743Z,1010.12
2017-10-15T11:26:29.791Z,1010.13
2017-10-15T11:27:29.798Z,1010.14
2017-10-15T11:28:29.812Z,1010.09
2017-10-15T11:29:29.924Z,1010.10
2017-10-15T11:30:29.859Z,1010.09
2017-10-15T11:31:29.883Z,1010.08
2017-10-15T11:32:29.906Z,1010.08
2017-10-15T11:33:29.931Z,1010.06
2017-10-15T11:34:29.962Z,1010.04
2017-10-15T11:35:29.975Z,1010.04
2017-10-15T11:36:30.015Z,1009.99
2017-10-15T11:37:30.031Z,1009.99
2017-10-15T11:38:30.050Z,1009.99
2017-10-15T11:39:30.066Z,1009.95
2017-10-15T11:40:30.102Z,1009.97
2017-10-15T11:41:30.123Z,1009.92
2017-10-15T11:42:30.138Z,1009.92
2017-10-15T11:43:30.166Z,1009.87
2017-10-15T11:44:30.210Z,1009.89
2017-10-15T11:45:30.228Z,1009.84
2017-10-15T11:46:30.245Z,1009.86
2017-10-15T11:47:30.294Z,1009.84
2017-10-15T11:48:30.285Z,1009.81
2017-10-15T11:49:30.318Z,1009.79
2017-10-15T11:50:30.339Z,1009.78
2017-10-15T11:51:30.349Z,1009.78
2017-10-15T11:52:30.378Z,1009.81
2017-10-15T11:53:30.392Z,1009.76
2017-10-15T11:54:30.468Z,1009.75
2017-10-15T11:55:30.443Z,1009.73
2017-10-15T11:56:30.475Z,1009.72
2017-10-15T11:57:30.495Z,1009.70
2017-10-15T11:58:30.514Z,1009.72
2017-10-15T11:59:30.536Z,1009.68
2017-10-15T12:00:30.563Z,1009.64
2017-10-15T12:01:30.583Z,1009.65
2017-10-15T12:02:30.619Z,1009.60
2017-10-15T12:03:30.641Z,1009.60
2017-10-15T12:04:30.652Z,1009.59
2017-10-15T12:05:30.674Z,1009.60